sensor_id;sensor_type;location;lat;lon;timestamp;pressure;altitude;pressure_sealevel;temperature;humidity
46408;BME280;32110;45.724;21.276;2023-08-06T00:01:11;99341.75;;;17.93;nan
46408;BME280;32110;45.724;21.276;2023-08-06T00:03:37;99328.13;;;17.95;nan
46408;BME280;32110;45.724;21.276;2023-08-06T00:06:04;99325.19;;;17.96;nan
46408;BME280;32110;45.724;21.276;2023-08-06T00:08:29;99317.78;;;17.93;nan
46408;BME280;32110;45.724;21.276;2023-08-06T00:10:55;99306.94;;;17.90;nan
46408;BME280;32110;45.724;21.276;2023-08-06T00:13:20;99316.94;;;17.84;nan
46408;BME280;32110;45.724;21.276;2023-08-06T00:15:45;99308.03;;;17.89;nan
46408;BME280;32110;45.724;21.276;2023-08-06T00:18:11;99311.09;;;17.82;nan
46408;BME280;32110;45.724;21.276;2023-08-06T00:20:39;99311.19;;;17.77;nan
46408;BME280;32110;45.724;21.276;2023-08-06T00:23:05;99293.34;;;17.77;nan
46408;BME280;32110;45.724;21.276;2023-08-06T00:25:30;99262.88;;;17.70;nan
46408;BME280;32110;45.724;21.276;2023-08-06T00:27:56;99250.59;;;17.60;nan
46408;BME280;32110;45.724;21.276;2023-08-06T00:30:21;99261.16;;;17.51;nan
46408;BME280;32110;45.724;21.276;2023-08-06T00:32:47;99295.25;;;17.63;nan
46408;BME280;32110;45.724;21.276;2023-08-06T00:35:12;99307.66;;;17.68;nan
46408;BME280;32110;45.724;21.276;2023-08-06T00:37:38;99306.56;;;17.69;nan
46408;BME280;32110;45.724;21.276;2023-08-06T00:40:05;99302.53;;;17.57;nan
46408;BME280;32110;45.724;21.276;2023-08-06T00:42:31;99291.03;;;17.48;nan
46408;BME280;32110;45.724;21.276;2023-08-06T00:44:56;99288.94;;;17.59;nan
46408;BME280;32110;45.724;21.276;2023-08-06T00:47:21;99250.41;;;17.42;nan
46408;BME280;32110;45.724;21.276;2023-08-06T00:49:47;99276.22;;;17.56;nan
46408;BME280;32110;45.724;21.276;2023-08-06T00:52:13;99259.66;;;17.45;nan
46408;BME280;32110;45.724;21.276;2023-08-06T00:54:39;99256.44;;;17.48;nan
46408;BME280;32110;45.724;21.276;2023-08-06T00:57:06;99243.22;;;17.43;nan
46408;BME280;32110;45.724;21.276;2023-08-06T00:59:32;99254.53;;;17.49;nan
46408;BME280;32110;45.724;21.276;2023-08-06T01:01:58;99217.00;;;17.36;nan
46408;BME280;32110;45.724;21.276;2023-08-06T01:04:23;99199.16;;;17.37;nan
46408;BME280;32110;45.724;21.276;2023-08-06T01:06:59;99176.59;;;17.34;nan
46408;BME280;32110;45.724;21.276;2023-08-06T01:09:52;99182.59;;;17.40;nan
46408;BME280;32110;45.724;21.276;2023-08-06T01:15:05;99164.88;;;17.35;nan
46408;BME280;32110;45.724;21.276;2023-08-06T01:17:33;99156.47;;;17.42;nan
46408;BME280;32110;45.724;21.276;2023-08-06T01:19:59;99155.03;;;17.36;nan
46408;BME280;32110;45.724;21.276;2023-08-06T01:22:24;99145.94;;;17.37;nan
46408;BME280;32110;45.724;21.276;2023-08-06T01:24:50;99152.53;;;17.39;nan
46408;BME280;32110;45.724;21.276;2023-08-06T01:27:49;99153.84;;;17.28;nan
46408;BME280;32110;45.724;21.276;2023-08-06T01:30:27;99140.88;;;17.27;nan
46408;BME280;32110;45.724;21.276;2023-08-06T01:32:59;99146.31;;;17.21;nan
46408;BME280;32110;45.724;21.276;2023-08-06T01:35:26;99170.03;;;17.18;nan
46408;BME280;32110;45.724;21.276;2023-08-06T01:37:52;99181.25;;;17.29;nan
46408;BME280;32110;45.724;21.276;2023-08-06T01:40:18;99159.97;;;17.29;nan
46408;BME280;32110;45.724;21.276;2023-08-06T01:42:43;99140.00;;;17.17;nan
46408;BME280;32110;45.724;21.276;2023-08-06T01:45:09;99156.72;;;17.32;nan
46408;BME280;32110;45.724;21.276;2023-08-06T01:47:35;99131.63;;;17.24;nan
46408;BME280;32110;45.724;21.276;2023-08-06T01:50:01;99145.94;;;17.37;nan
46408;BME280;32110;45.724;21.276;2023-08-06T01:52:27;99174.50;;;17.45;nan
46408;BME280;32110;45.724;21.276;2023-08-06T01:54:52;99202.22;;;17.44;nan
46408;BME280;32110;45.724;21.276;2023-08-06T01:57:17;99231.47;;;17.44;nan
46408;BME280;32110;45.724;21.276;2023-08-06T01:59:43;99231.19;;;17.46;nan
46408;BME280;32110;45.724;21.276;2023-08-06T02:02:08;99208.81;;;17.47;nan
46408;BME280;32110;45.724;21.276;2023-08-06T02:04:33;99194.09;;;17.49;nan
46408;BME280;32110;45.724;21.276;2023-08-06T02:06:59;99202.28;;;17.53;nan
46408;BME280;32110;45.724;21.276;2023-08-06T02:09:24;99216.88;;;17.55;nan
46408;BME280;32110;45.724;21.276;2023-08-06T02:11:50;99202.59;;;17.51;nan
46408;BME280;32110;45.724;21.276;2023-08-06T02:14:15;99205.63;;;17.58;nan
46408;BME280;32110;45.724;21.276;2023-08-06T02:16:40;99193.81;;;17.51;nan
46408;BME280;32110;45.724;21.276;2023-08-06T02:19:06;99203.84;;;17.54;nan
46408;BME280;32110;45.724;21.276;2023-08-06T02:21:31;99208.78;;;17.60;nan
46408;BME280;32110;45.724;21.276;2023-08-06T02:23:57;99207.19;;;17.59;nan
46408;BME280;32110;45.724;21.276;2023-08-06T02:26:22;99202.34;;;17.61;nan
46408;BME280;32110;45.724;21.276;2023-08-06T02:28:48;99178.06;;;17.40;nan
46408;BME280;32110;45.724;21.276;2023-08-06T02:31:13;99206.91;;;17.61;nan
46408;BME280;32110;45.724;21.276;2023-08-06T02:33:39;99201.28;;;17.62;nan
46408;BME280;32110;45.724;21.276;2023-08-06T02:36:04;99188.56;;;17.59;nan
46408;BME280;32110;45.724;21.276;2023-08-06T02:38:31;99202.56;;;17.65;nan
46408;BME280;32110;45.724;21.276;2023-08-06T02:40:56;99204.22;;;17.61;nan
46408;BME280;32110;45.724;21.276;2023-08-06T02:43:22;99206.13;;;17.60;nan
46408;BME280;32110;45.724;21.276;2023-08-06T02:45:47;99211.94;;;17.62;nan
46408;BME280;32110;45.724;21.276;2023-08-06T02:48:13;99207.69;;;17.61;nan
46408;BME280;32110;45.724;21.276;2023-08-06T02:50:41;99206.59;;;17.62;nan
46408;BME280;32110;45.724;21.276;2023-08-06T02:53:08;99220.56;;;17.68;nan
46408;BME280;32110;45.724;21.276;2023-08-06T02:55:34;99224.34;;;17.67;nan
46408;BME280;32110;45.724;21.276;2023-08-06T02:58:01;99216.94;;;17.64;nan
46408;BME280;32110;45.724;21.276;2023-08-06T03:00:26;99220.88;;;17.67;nan
46408;BME280;32110;45.724;21.276;2023-08-06T03:02:52;99214.59;;;17.62;nan
46408;BME280;32110;45.724;21.276;2023-08-06T03:05:18;99218.81;;;17.63;nan
46408;BME280;32110;45.724;21.276;2023-08-06T03:07:43;99215.53;;;17.67;nan
46408;BME280;32110;45.724;21.276;2023-08-06T03:10:09;99219.78;;;17.68;nan
46408;BME280;32110;45.724;21.276;2023-08-06T03:12:34;99222.94;;;17.70;nan
46408;BME280;32110;45.724;21.276;2023-08-06T03:15:00;99212.59;;;17.68;nan
46408;BME280;32110;45.724;21.276;2023-08-06T03:17:25;99204.78;;;17.72;nan
46408;BME280;32110;45.724;21.276;2023-08-06T03:19:51;99197.28;;;17.74;nan
46408;BME280;32110;45.724;21.276;2023-08-06T03:22:16;99187.25;;;17.71;nan
46408;BME280;32110;45.724;21.276;2023-08-06T03:24:41;99190.25;;;17.78;nan
46408;BME280;32110;45.724;21.276;2023-08-06T03:27:07;99185.22;;;17.76;nan
46408;BME280;32110;45.724;21.276;2023-08-06T03:29:32;99174.91;;;17.75;nan
46408;BME280;32110;45.724;21.276;2023-08-06T03:31:57;99174.00;;;17.79;nan
46408;BME280;32110;45.724;21.276;2023-08-06T03:34:23;99175.78;;;17.84;nan
46408;BME280;32110;45.724;21.276;2023-08-06T03:36:48;99177.53;;;17.89;nan
46408;BME280;32110;45.724;21.276;2023-08-06T03:39:13;99179.09;;;17.90;nan
46408;BME280;32110;45.724;21.276;2023-08-06T03:41:39;99162.22;;;17.94;nan
46408;BME280;32110;45.724;21.276;2023-08-06T03:44:05;99158.28;;;17.92;nan
46408;BME280;32110;45.724;21.276;2023-08-06T03:46:30;99160.47;;;17.90;nan
46408;BME280;32110;45.724;21.276;2023-08-06T03:48:59;99169.72;;;17.92;nan
46408;BME280;32110;45.724;21.276;2023-08-06T03:51:25;99181.94;;;17.93;nan
46408;BME280;32110;45.724;21.276;2023-08-06T03:53:50;99177.72;;;17.92;nan
46408;BME280;32110;45.724;21.276;2023-08-06T03:56:16;99165.91;;;17.84;nan
46408;BME280;32110;45.724;21.276;2023-08-06T03:58:41;99174.88;;;17.89;nan
46408;BME280;32110;45.724;21.276;2023-08-06T04:01:06;99189.75;;;17.90;nan
46408;BME280;32110;45.724;21.276;2023-08-06T04:03:32;99187.38;;;17.88;nan
46408;BME280;32110;45.724;21.276;2023-08-06T04:05:57;99171.03;;;17.81;nan
46408;BME280;32110;45.724;21.276;2023-08-06T04:08:23;99183.94;;;17.88;nan
46408;BME280;32110;45.724;21.276;2023-08-06T04:10:52;99180.22;;;17.89;nan
46408;BME280;32110;45.724;21.276;2023-08-06T04:13:18;99180.78;;;17.85;nan
46408;BME280;32110;45.724;21.276;2023-08-06T04:15:43;99183.31;;;17.91;nan
46408;BME280;32110;45.724;21.276;2023-08-06T04:18:08;99170.63;;;17.88;nan
46408;BME280;32110;45.724;21.276;2023-08-06T04:20:34;99164.69;;;17.91;nan
46408;BME280;32110;45.724;21.276;2023-08-06T04:23:05;99158.28;;;17.92;nan
46408;BME280;32110;45.724;21.276;2023-08-06T04:25:32;99154.66;;;17.88;nan
46408;BME280;32110;45.724;21.276;2023-08-06T04:27:57;99157.50;;;17.91;nan
46408;BME280;32110;45.724;21.276;2023-08-06T04:30:23;99158.78;;;17.94;nan
46408;BME280;32110;45.724;21.276;2023-08-06T04:32:50;99132.69;;;17.82;nan
46408;BME280;32110;45.724;21.276;2023-08-06T04:35:15;99161.13;;;17.95;nan
46408;BME280;32110;45.724;21.276;2023-08-06T04:37:41;99163.28;;;17.93;nan
46408;BME280;32110;45.724;21.276;2023-08-06T04:40:07;99128.25;;;17.77;nan
46408;BME280;32110;45.724;21.276;2023-08-06T04:42:32;99154.72;;;17.96;nan
46408;BME280;32110;45.724;21.276;2023-08-06T04:44:58;99158.66;;;17.99;nan
46408;BME280;32110;45.724;21.276;2023-08-06T04:47:23;99159.25;;;17.96;nan
46408;BME280;32110;45.724;21.276;2023-08-06T04:49:48;99171.78;;;17.95;nan
46408;BME280;32110;45.724;21.276;2023-08-06T04:52:14;99167.06;;;17.92;nan
46408;BME280;32110;45.724;21.276;2023-08-06T04:54:39;99190.41;;;17.95;nan
46408;BME280;32110;45.724;21.276;2023-08-06T04:57:05;99198.41;;;17.95;nan
46408;BME280;32110;45.724;21.276;2023-08-06T04:59:30;99194.19;;;17.94;nan
46408;BME280;32110;45.724;21.276;2023-08-06T05:01:55;99194.19;;;17.94;nan
46408;BME280;32110;45.724;21.276;2023-08-06T05:04:21;99203.72;;;17.95;nan
46408;BME280;32110;45.724;21.276;2023-08-06T05:06:46;99198.72;;;17.94;nan
46408;BME280;32110;45.724;21.276;2023-08-06T05:09:11;99185.81;;;17.87;nan
46408;BME280;32110;45.724;21.276;2023-08-06T05:11:37;99207.50;;;17.94;nan
46408;BME280;32110;45.724;21.276;2023-08-06T05:14:02;99190.84;;;17.89;nan
46408;BME280;32110;45.724;21.276;2023-08-06T05:16:28;99191.31;;;17.91;nan
46408;BME280;32110;45.724;21.276;2023-08-06T05:18:53;99195.25;;;17.93;nan
46408;BME280;32110;45.724;21.276;2023-08-06T05:21:18;99190.91;;;17.97;nan
46408;BME280;32110;45.724;21.276;2023-08-06T05:23:44;99180.38;;;17.92;nan
46408;BME280;32110;45.724;21.276;2023-08-06T05:26:09;99185.56;;;17.97;nan
46408;BME280;32110;45.724;21.276;2023-08-06T05:28:34;99193.56;;;17.97;nan
46408;BME280;32110;45.724;21.276;2023-08-06T05:31:06;99190.41;;;17.95;nan
46408;BME280;32110;45.724;21.276;2023-08-06T05:33:31;99200.00;;;17.96;nan
46408;BME280;32110;45.724;21.276;2023-08-06T05:35:57;99195.25;;;17.93;nan
46408;BME280;32110;45.724;21.276;2023-08-06T05:38:22;99193.88;;;17.96;nan
46408;BME280;32110;45.724;21.276;2023-08-06T05:40:48;99199.00;;;17.92;nan
46408;BME280;32110;45.724;21.276;2023-08-06T05:43:14;99194.47;;;17.93;nan
46408;BME280;32110;45.724;21.276;2023-08-06T05:45:39;99206.88;;;17.97;nan
46408;BME280;32110;45.724;21.276;2023-08-06T05:48:08;99206.47;;;18.04;nan
46408;BME280;32110;45.724;21.276;2023-08-06T05:50:34;99216.34;;;18.03;nan
46408;BME280;32110;45.724;21.276;2023-08-06T05:52:59;99210.22;;;18.03;nan
46408;BME280;32110;45.724;21.276;2023-08-06T05:55:25;99213.84;;;18.07;nan
46408;BME280;32110;45.724;21.276;2023-08-06T05:57:50;99219.66;;;18.09;nan
46408;BME280;32110;45.724;21.276;2023-08-06T06:00:17;99209.78;;;18.10;nan
46408;BME280;32110;45.724;21.276;2023-08-06T06:02:43;99220.31;;;18.15;nan
46408;BME280;32110;45.724;21.276;2023-08-06T06:05:09;99224.38;;;18.12;nan
46408;BME280;32110;45.724;21.276;2023-08-06T06:07:34;99220.44;;;18.10;nan
46408;BME280;32110;45.724;21.276;2023-08-06T06:10:00;99228.13;;;18.11;nan
46408;BME280;32110;45.724;21.276;2023-08-06T06:12:25;99223.91;;;18.10;nan
46408;BME280;32110;45.724;21.276;2023-08-06T06:14:51;99220.28;;;18.06;nan
46408;BME280;32110;45.724;21.276;2023-08-06T06:17:16;99220.44;;;18.10;nan
46408;BME280;32110;45.724;21.276;2023-08-06T06:19:42;99211.19;;;18.07;nan
46408;BME280;32110;45.724;21.276;2023-08-06T06:22:07;99219.94;;;18.07;nan
46408;BME280;32110;45.724;21.276;2023-08-06T06:24:33;99200.00;;;17.96;nan
46408;BME280;32110;45.724;21.276;2023-08-06T06:26:58;99219.13;;;17.98;nan
46408;BME280;32110;45.724;21.276;2023-08-06T06:29:24;99243.75;;;18.04;nan
46408;BME280;32110;45.724;21.276;2023-08-06T06:31:49;99235.69;;;17.95;nan
46408;BME280;32110;45.724;21.276;2023-08-06T06:34:15;99246.22;;;18.00;nan
46408;BME280;32110;45.724;21.276;2023-08-06T06:36:40;99243.38;;;17.97;nan
46408;BME280;32110;45.724;21.276;2023-08-06T06:39:06;99243.38;;;17.97;nan
46408;BME280;32110;45.724;21.276;2023-08-06T06:41:31;99237.41;;;17.91;nan
46408;BME280;32110;45.724;21.276;2023-08-06T06:43:58;99240.66;;;17.88;nan
46408;BME280;32110;45.724;21.276;2023-08-06T06:46:23;99248.34;;;17.90;nan
46408;BME280;32110;45.724;21.276;2023-08-06T06:48:49;99257.50;;;17.97;nan
46408;BME280;32110;45.724;21.276;2023-08-06T06:51:14;99256.81;;;17.92;nan
46408;BME280;32110;45.724;21.276;2023-08-06T06:53:39;99250.41;;;17.93;nan
46408;BME280;32110;45.724;21.276;2023-08-06T06:56:06;99252.78;;;17.94;nan
46408;BME280;32110;45.724;21.276;2023-08-06T06:58:32;99254.53;;;17.99;nan
46408;BME280;32110;45.724;21.276;2023-08-06T07:00:58;99230.81;;;17.89;nan
46408;BME280;32110;45.724;21.276;2023-08-06T07:03:23;99257.56;;;18.06;nan
46408;BME280;32110;45.724;21.276;2023-08-06T07:05:49;99251.47;;;18.05;nan
46408;BME280;32110;45.724;21.276;2023-08-06T07:08:15;99258.53;;;18.10;nan
46408;BME280;32110;45.724;21.276;2023-08-06T07:10:41;99264.66;;;18.11;nan
46408;BME280;32110;45.724;21.276;2023-08-06T07:13:07;99260.41;;;18.10;nan
46408;BME280;32110;45.724;21.276;2023-08-06T07:15:33;99260.09;;;18.11;nan
46408;BME280;32110;45.724;21.276;2023-08-06T07:17:58;99264.81;;;18.14;nan
46408;BME280;32110;45.724;21.276;2023-08-06T07:20:24;99258.72;;;18.14;nan
46408;BME280;32110;45.724;21.276;2023-08-06T07:22:49;99259.19;;;18.16;nan
46408;BME280;32110;45.724;21.276;2023-08-06T07:25:16;99257.50;;;18.20;nan
46408;BME280;32110;45.724;21.276;2023-08-06T07:27:41;99252.19;;;18.20;nan
46408;BME280;32110;45.724;21.276;2023-08-06T07:30:07;99257.25;;;18.30;nan
46408;BME280;32110;45.724;21.276;2023-08-06T07:32:32;99259.31;;;18.33;nan
46408;BME280;32110;45.724;21.276;2023-08-06T07:34:58;99267.66;;;18.40;nan
46408;BME280;32110;45.724;21.276;2023-08-06T07:37:25;99265.19;;;18.44;nan
46408;BME280;32110;45.724;21.276;2023-08-06T07:39:50;99255.78;;;18.46;nan
46408;BME280;32110;45.724;21.276;2023-08-06T07:42:16;99261.03;;;18.60;nan
46408;BME280;32110;45.724;21.276;2023-08-06T07:44:41;99266.34;;;18.60;nan
46408;BME280;32110;45.724;21.276;2023-08-06T07:47:07;99260.59;;;18.67;nan
46408;BME280;32110;45.724;21.276;2023-08-06T07:49:32;99264.72;;;18.73;nan
46408;BME280;32110;45.724;21.276;2023-08-06T07:51:58;99255.03;;;18.77;nan
46408;BME280;32110;45.724;21.276;2023-08-06T07:54:23;99253.44;;;18.76;nan
46408;BME280;32110;45.724;21.276;2023-08-06T07:56:49;99250.66;;;18.81;nan
46408;BME280;32110;45.724;21.276;2023-08-06T07:59:15;99247.69;;;18.83;nan
46408;BME280;32110;45.724;21.276;2023-08-06T08:01:40;99246.28;;;18.85;nan
46408;BME280;32110;45.724;21.276;2023-08-06T08:04:05;99255.72;;;18.91;nan
46408;BME280;32110;45.724;21.276;2023-08-06T08:06:31;99256.38;;;18.97;nan
46408;BME280;32110;45.724;21.276;2023-08-06T08:08:56;99261.06;;;19.00;nan
46408;BME280;32110;45.724;21.276;2023-08-06T08:11:22;99261.56;;;19.02;nan
46408;BME280;32110;45.724;21.276;2023-08-06T08:13:47;99265.97;;;19.07;nan
46408;BME280;32110;45.724;21.276;2023-08-06T08:16:12;99233.56;;;18.91;nan
46408;BME280;32110;45.724;21.276;2023-08-06T08:18:38;99250.13;;;19.10;nan
46408;BME280;32110;45.724;21.276;2023-08-06T08:21:03;99249.38;;;19.19;nan
46408;BME280;32110;45.724;21.276;2023-08-06T08:23:28;99254.84;;;19.22;nan
46408;BME280;32110;45.724;21.276;2023-08-06T08:25:56;99259.28;;;19.27;nan
46408;BME280;32110;45.724;21.276;2023-08-06T08:28:21;99260.38;;;19.26;nan
46408;BME280;32110;45.724;21.276;2023-08-06T08:30:47;99263.06;;;19.34;nan
46408;BME280;32110;45.724;21.276;2023-08-06T08:33:13;99267.00;;;19.37;nan
46408;BME280;32110;45.724;21.276;2023-08-06T08:35:38;99278.94;;;19.40;nan
46408;BME280;32110;45.724;21.276;2023-08-06T08:38:03;99267.31;;;19.36;nan
46408;BME280;32110;45.724;21.276;2023-08-06T08:40:33;99260.72;;;19.33;nan
46408;BME280;32110;45.724;21.276;2023-08-06T08:43:02;99268.56;;;19.38;nan
46408;BME280;32110;45.724;21.276;2023-08-06T08:45:29;99257.88;;;19.38;nan
46408;BME280;32110;45.724;21.276;2023-08-06T08:47:55;99256.66;;;19.44;nan
46408;BME280;32110;45.724;21.276;2023-08-06T08:50:21;99265.28;;;19.50;nan
46408;BME280;32110;45.724;21.276;2023-08-06T08:52:47;99250.22;;;19.45;nan
46408;BME280;32110;45.724;21.276;2023-08-06T08:55:14;99260.91;;;19.54;nan
46408;BME280;32110;45.724;21.276;2023-08-06T08:57:40;99281.00;;;19.60;nan
46408;BME280;32110;45.724;21.276;2023-08-06T09:00:06;99269.53;;;19.60;nan
46408;BME280;32110;45.724;21.276;2023-08-06T09:02:33;99261.69;;;19.63;nan
46408;BME280;32110;45.724;21.276;2023-08-06T09:05:00;99265.66;;;19.74;nan
46408;BME280;32110;45.724;21.276;2023-08-06T09:07:31;99256.41;;;19.81;nan
46408;BME280;32110;45.724;21.276;2023-08-06T09:09:57;99238.00;;;19.70;nan
46408;BME280;32110;45.724;21.276;2023-08-06T09:12:24;99261.25;;;19.96;nan
46408;BME280;32110;45.724;21.276;2023-08-06T09:14:51;99254.50;;;19.98;nan
46408;BME280;32110;45.724;21.276;2023-08-06T09:17:17;99256.69;;;20.05;nan
46408;BME280;32110;45.724;21.276;2023-08-06T09:19:45;99255.91;;;20.13;nan
46408;BME280;32110;45.724;21.276;2023-08-06T09:22:12;99252.28;;;20.18;nan
46408;BME280;32110;45.724;21.276;2023-08-06T09:24:40;99232.00;;;20.17;nan
46408;BME280;32110;45.724;21.276;2023-08-06T09:27:10;99231.34;;;20.29;nan
46408;BME280;32110;45.724;21.276;2023-08-06T09:29:40;99232.72;;;20.44;nan
46408;BME280;32110;45.724;21.276;2023-08-06T09:32:05;99230.06;;;20.44;nan
46408;BME280;32110;45.724;21.276;2023-08-06T09:34:31;99230.84;;;20.62;nan
46408;BME280;32110;45.724;21.276;2023-08-06T09:36:56;99233.16;;;20.72;nan
46408;BME280;32110;45.724;21.276;2023-08-06T09:39:27;99230.09;;;20.82;nan
46408;BME280;32110;45.724;21.276;2023-08-06T09:41:57;99217.00;;;20.89;nan
46408;BME280;32110;45.724;21.276;2023-08-06T09:44:24;99216.19;;;20.97;nan
46408;BME280;32110;45.724;21.276;2023-08-06T09:46:55;99225.75;;;21.07;nan
46408;BME280;32110;45.724;21.276;2023-08-06T09:52:02;99221.66;;;21.31;nan
46408;BME280;32110;45.724;21.276;2023-08-06T09:54:27;99218.94;;;21.39;nan
46408;BME280;32110;45.724;21.276;2023-08-06T09:56:56;99219.22;;;21.47;nan
46408;BME280;32110;45.724;21.276;2023-08-06T09:59:25;99221.91;;;21.47;nan
46408;BME280;32110;45.724;21.276;2023-08-06T10:01:51;99222.22;;;21.45;nan
46408;BME280;32110;45.724;21.276;2023-08-06T10:04:16;99224.78;;;21.41;nan
46408;BME280;32110;45.724;21.276;2023-08-06T10:06:46;99227.75;;;21.40;nan
46408;BME280;32110;45.724;21.276;2023-08-06T10:09:12;99215.78;;;21.37;nan
46408;BME280;32110;45.724;21.276;2023-08-06T10:11:39;99226.94;;;21.48;nan
46408;BME280;32110;45.724;21.276;2023-08-06T10:14:13;99227.50;;;21.54;nan
46408;BME280;32110;45.724;21.276;2023-08-06T10:16:40;99229.00;;;21.63;nan
46408;BME280;32110;45.724;21.276;2023-08-06T10:19:07;99217.38;;;21.59;nan
46408;BME280;32110;45.724;21.276;2023-08-06T10:21:34;99221.91;;;21.67;nan
46408;BME280;32110;45.724;21.276;2023-08-06T10:23:59;99205.88;;;21.59;nan
46408;BME280;32110;45.724;21.276;2023-08-06T10:26:27;99227.06;;;21.73;nan
46408;BME280;32110;45.724;21.276;2023-08-06T10:28:52;99218.25;;;21.72;nan
46408;BME280;32110;45.724;21.276;2023-08-06T10:31:18;99223.25;;;21.74;nan
46408;BME280;32110;45.724;21.276;2023-08-06T10:33:47;99231.56;;;21.60;nan
46408;BME280;32110;45.724;21.276;2023-08-06T10:36:13;99238.09;;;21.50;nan
46408;BME280;32110;45.724;21.276;2023-08-06T10:38:46;99230.59;;;21.35;nan
46408;BME280;32110;45.724;21.276;2023-08-06T10:41:29;99228.59;;;21.32;nan
46408;BME280;32110;45.724;21.276;2023-08-06T10:44:07;99221.84;;;21.25;nan
46408;BME280;32110;45.724;21.276;2023-08-06T10:46:36;99219.81;;;21.22;nan
46408;BME280;32110;45.724;21.276;2023-08-06T10:49:02;99230.84;;;21.21;nan
46408;BME280;32110;45.724;21.276;2023-08-06T10:51:28;99230.38;;;21.19;nan
46408;BME280;32110;45.724;21.276;2023-08-06T10:53:54;99218.00;;;21.14;nan
46408;BME280;32110;45.724;21.276;2023-08-06T10:56:21;99235.88;;;21.22;nan
46408;BME280;32110;45.724;21.276;2023-08-06T10:58:53;99235.38;;;21.29;nan
46408;BME280;32110;45.724;21.276;2023-08-06T11:01:19;99232.34;;;21.31;nan
46408;BME280;32110;45.724;21.276;2023-08-06T11:03:46;99220.81;;;21.39;nan
46408;BME280;32110;45.724;21.276;2023-08-06T11:06:17;99224.09;;;21.44;nan
46408;BME280;32110;45.724;21.276;2023-08-06T11:08:49;99211.19;;;21.47;nan
46408;BME280;32110;45.724;21.276;2023-08-06T11:11:16;99217.00;;;21.49;nan
46408;BME280;32110;45.724;21.276;2023-08-06T11:13:49;99221.69;;;21.52;nan
46408;BME280;32110;45.724;21.276;2023-08-06T11:16:20;99215.09;;;21.49;nan
46408;BME280;32110;45.724;21.276;2023-08-06T11:18:46;99224.06;;;21.53;nan
46408;BME280;32110;45.724;21.276;2023-08-06T11:21:13;99234.78;;;21.53;nan
46408;BME280;32110;45.724;21.276;2023-08-06T11:23:38;99222.94;;;21.54;nan
46408;BME280;32110;45.724;21.276;2023-08-06T11:26:05;99227.19;;;21.55;nan
46408;BME280;32110;45.724;21.276;2023-08-06T11:28:30;99224.44;;;21.64;nan
46408;BME280;32110;45.724;21.276;2023-08-06T11:30:55;99213.09;;;21.67;nan
46408;BME280;32110;45.724;21.276;2023-08-06T11:33:25;99213.97;;;21.71;nan
46408;BME280;32110;45.724;21.276;2023-08-06T11:35:51;99211.22;;;21.80;nan
46408;BME280;32110;45.724;21.276;2023-08-06T11:38:17;99213.97;;;21.92;nan
46408;BME280;32110;45.724;21.276;2023-08-06T11:40:50;99210.84;;;22.02;nan
46408;BME280;32110;45.724;21.276;2023-08-06T11:43:15;99204.28;;;22.12;nan
46408;BME280;32110;45.724;21.276;2023-08-06T11:45:41;99202.47;;;22.25;nan
46408;BME280;32110;45.724;21.276;2023-08-06T11:48:07;99188.41;;;22.28;nan
46408;BME280;32110;45.724;21.276;2023-08-06T11:50:36;99209.19;;;22.43;nan
46408;BME280;32110;45.724;21.276;2023-08-06T11:53:02;99192.78;;;22.45;nan
46408;BME280;32110;45.724;21.276;2023-08-06T11:55:28;99202.50;;;22.49;nan
46408;BME280;32110;45.724;21.276;2023-08-06T11:57:54;99192.22;;;22.51;nan
46408;BME280;32110;45.724;21.276;2023-08-06T12:00:23;99220.06;;;22.59;nan
46408;BME280;32110;45.724;21.276;2023-08-06T12:02:49;99214.38;;;22.61;nan
46408;BME280;32110;45.724;21.276;2023-08-06T12:05:20;99216.28;;;22.60;nan
46408;BME280;32110;45.724;21.276;2023-08-06T12:07:54;99200.16;;;22.48;nan
46408;BME280;32110;45.724;21.276;2023-08-06T12:10:22;99221.53;;;22.57;nan
46408;BME280;32110;45.724;21.276;2023-08-06T12:12:47;99228.66;;;22.52;nan
46408;BME280;32110;45.724;21.276;2023-08-06T12:15:13;99225.19;;;22.52;nan
46408;BME280;32110;45.724;21.276;2023-08-06T12:17:39;99222.66;;;22.56;nan
46408;BME280;32110;45.724;21.276;2023-08-06T12:20:06;99210.47;;;22.58;nan
46408;BME280;32110;45.724;21.276;2023-08-06T12:22:32;99209.13;;;22.64;nan
46408;BME280;32110;45.724;21.276;2023-08-06T12:25:04;99214.25;;;22.69;nan
46408;BME280;32110;45.724;21.276;2023-08-06T12:27:36;99210.94;;;22.72;nan
46408;BME280;32110;45.724;21.276;2023-08-06T12:30:02;99209.13;;;22.77;nan
46408;BME280;32110;45.724;21.276;2023-08-06T12:32:29;99208.09;;;22.81;nan
46408;BME280;32110;45.724;21.276;2023-08-06T12:34:55;99216.28;;;22.85;nan
46408;BME280;32110;45.724;21.276;2023-08-06T12:37:20;99214.94;;;22.91;nan
46408;BME280;32110;45.724;21.276;2023-08-06T12:39:46;99207.69;;;22.91;nan
46408;BME280;32110;45.724;21.276;2023-08-06T12:42:11;99211.69;;;22.98;nan
46408;BME280;32110;45.724;21.276;2023-08-06T12:44:37;99213.72;;;23.01;nan
46408;BME280;32110;45.724;21.276;2023-08-06T12:47:02;99217.84;;;23.10;nan
46408;BME280;32110;45.724;21.276;2023-08-06T12:49:28;99215.75;;;23.16;nan
46408;BME280;32110;45.724;21.276;2023-08-06T12:51:54;99225.13;;;23.22;nan
46408;BME280;32110;45.724;21.276;2023-08-06T12:54:22;99223.66;;;23.25;nan
46408;BME280;32110;45.724;21.276;2023-08-06T12:56:47;99217.50;;;23.24;nan
46408;BME280;32110;45.724;21.276;2023-08-06T12:59:14;99215.59;;;23.25;nan
46408;BME280;32110;45.724;21.276;2023-08-06T13:01:41;99225.91;;;23.23;nan
46408;BME280;32110;45.724;21.276;2023-08-06T13:04:06;99224.91;;;23.27;nan
46408;BME280;32110;45.724;21.276;2023-08-06T13:06:32;99225.00;;;23.31;nan
46408;BME280;32110;45.724;21.276;2023-08-06T13:09:05;99218.41;;;23.28;nan
46408;BME280;32110;45.724;21.276;2023-08-06T13:11:31;99221.75;;;23.38;nan